Huvudsida
METAR-TAF:

METAR-TAF

Flygplatser :

Åre Östersund Airport

Östersund-Frösön, Sverige

latitud: 63-11N, longitud: 014-30E, höjd: 376 m

Aktuellt väderrapport

Denna rapport gjordes för 10 minuter sedan, klockan 11:50 UTC
Vind 10 kt från syd/sydost
Temperatur 18°C
Fuktighet 68%
Tryck 1007 hPa
Sikt 10 km eller mer
Mulet på en höjd av 3400 ft

METAR: ESNZ 161150Z 16010KT 9999 OVC034 18/12 Q1007

Tid: 14:00 (12:00 UTC)

Väderprognos

Denna rapport gjordes för 30 minuter sedan, klockan 11:30 UTC
Prognos gäller från 16 kl. 12 UTC till 16 kl. 21 UTC
Vind 12 kt från syd
Sikt 10 km eller mer
Spridda moln på en höjd av 3000 ft
Brutna moln på en höjd av 4500 ft
Sannolikhet 40%
från 16 kl. 16 UTC till 16 kl. 21 UTC
Vind 15 kt från syd i byarna ända upp till 25 kt

TAF: ESNZ 161130Z 1612/1621 17012KT 9999 SCT030 BKN045 PROB40 1616/1621 17015G25KT

Aktuella väderrapporter och prognoser från 4000 flygplatser (METAR- och TAF-rapporter).

De tillgängliga stationerna syns som gula och röda prickar på kartan.

För musen över prickarna för att se namnen på stationerna.

Klicka sedan för att få väderrapporter och prognoser.

För att ändra kartan: Klicka på de gröna knapparna med ett svart kors på för att zooma in; den gröna knappen med ett streck på för att zooma ut; eller på de gröna pilarna för angränsande kartor.


METAR-TAF: